sensor_id;sensor_type;location;lat;lon;timestamp;P1;durP1;ratioP1;P2;durP2;ratioP2
73421;SDS011;61637;47.760;-122.022;2023-04-06T00:00:01;4.0;;;1.2;;
73421;SDS011;61637;47.760;-122.022;2023-04-06T00:02:00;4.9;;;1.3;;
73421;SDS011;61637;47.760;-122.022;2023-04-06T00:04:01;4.3;;;1.3;;
73421;SDS011;61637;47.760;-122.022;2023-04-06T00:06:01;3.9;;;1.3;;
73421;SDS011;61637;47.760;-122.022;2023-04-06T00:08:01;5.1;;;1.3;;
73421;SDS011;61637;47.760;-122.022;2023-04-06T00:10:02;3.6;;;1.3;;
73421;SDS011;61637;47.760;-122.022;2023-04-06T00:12:01;3.6;;;1.3;;
73421;SDS011;61637;47.760;-122.022;2023-04-06T00:14:00;3.6;;;1.3;;
73421;SDS011;61637;47.760;-122.022;2023-04-06T00:16:02;4.7;;;1.3;;
73421;SDS011;61637;47.760;-122.022;2023-04-06T00:18:01;5.1;;;1.4;;
73421;SDS011;61637;47.760;-122.022;2023-04-06T00:20:01;3.6;;;1.2;;
73421;SDS011;61637;47.760;-122.022;2023-04-06T00:22:01;4.0;;;1.3;;
73421;SDS011;61637;47.760;-122.022;2023-04-06T00:24:01;4.1;;;1.3;;
73421;SDS011;61637;47.760;-122.022;2023-04-06T00:26:01;4.9;;;1.4;;
73421;SDS011;61637;47.760;-122.022;2023-04-06T00:28:01;3.9;;;1.3;;
73421;SDS011;61637;47.760;-122.022;2023-04-06T00:30:01;3.8;;;1.2;;
73421;SDS011;61637;47.760;-122.022;2023-04-06T00:32:00;4.8;;;1.5;;
73421;SDS011;61637;47.760;-122.022;2023-04-06T00:34:01;4.5;;;1.4;;
73421;SDS011;61637;47.760;-122.022;2023-04-06T00:36:01;4.6;;;1.2;;
73421;SDS011;61637;47.760;-122.022;2023-04-06T00:38:01;3.7;;;1.2;;
73421;SDS011;61637;47.760;-122.022;2023-04-06T00:40:01;4.2;;;1.3;;
73421;SDS011;61637;47.760;-122.022;2023-04-06T00:42:06;3.7;;;1.3;;
73421;SDS011;61637;47.760;-122.022;2023-04-06T00:44:01;4.0;;;1.3;;
73421;SDS011;61637;47.760;-122.022;2023-04-06T00:46:01;4.0;;;1.2;;
73421;SDS011;61637;47.760;-122.022;2023-04-06T00:48:01;4.7;;;1.2;;
73421;SDS011;61637;47.760;-122.022;2023-04-06T00:50:01;4.1;;;1.4;;
73421;SDS011;61637;47.760;-122.022;2023-04-06T00:52:01;5.5;;;1.4;;
73421;SDS011;61637;47.760;-122.022;2023-04-06T00:54:01;3.2;;;1.2;;
73421;SDS011;61637;47.760;-122.022;2023-04-06T00:56:01;4.5;;;1.3;;
73421;SDS011;61637;47.760;-122.022;2023-04-06T00:58:02;4.8;;;1.3;;
73421;SDS011;61637;47.760;-122.022;2023-04-06T01:00:01;4.4;;;1.3;;
73421;SDS011;61637;47.760;-122.022;2023-04-06T01:02:01;3.9;;;1.2;;
73421;SDS011;61637;47.760;-122.022;2023-04-06T01:04:02;3.2;;;1.2;;
73421;SDS011;61637;47.760;-122.022;2023-04-06T01:06:01;4.6;;;1.3;;
73421;SDS011;61637;47.760;-122.022;2023-04-06T01:08:01;4.9;;;1.2;;
73421;SDS011;61637;47.760;-122.022;2023-04-06T01:10:01;3.8;;;1.2;;
73421;SDS011;61637;47.760;-122.022;2023-04-06T01:12:01;4.5;;;1.4;;
73421;SDS011;61637;47.760;-122.022;2023-04-06T01:14:01;5.4;;;1.3;;
73421;SDS011;61637;47.760;-122.022;2023-04-06T01:16:02;5.0;;;1.3;;
73421;SDS011;61637;47.760;-122.022;2023-04-06T01:18:01;3.9;;;1.2;;
73421;SDS011;61637;47.760;-122.022;2023-04-06T01:20:01;3.4;;;1.3;;
73421;SDS011;61637;47.760;-122.022;2023-04-06T01:22:01;4.4;;;1.2;;
73421;SDS011;61637;47.760;-122.022;2023-04-06T01:24:01;3.7;;;1.3;;
73421;SDS011;61637;47.760;-122.022;2023-04-06T01:26:01;4.3;;;1.2;;
73421;SDS011;61637;47.760;-122.022;2023-04-06T01:28:01;3.5;;;1.2;;
73421;SDS011;61637;47.760;-122.022;2023-04-06T01:30:01;3.1;;;1.2;;
73421;SDS011;61637;47.760;-122.022;2023-04-06T01:32:01;3.5;;;1.2;;
73421;SDS011;61637;47.760;-122.022;2023-04-06T01:34:01;3.3;;;1.2;;
73421;SDS011;61637;47.760;-122.022;2023-04-06T01:36:01;3.9;;;1.3;;
73421;SDS011;61637;47.760;-122.022;2023-04-06T01:38:01;4.2;;;1.3;;
73421;SDS011;61637;47.760;-122.022;2023-04-06T01:40:01;3.5;;;1.3;;
73421;SDS011;61637;47.760;-122.022;2023-04-06T01:42:01;3.9;;;1.3;;
73421;SDS011;61637;47.760;-122.022;2023-04-06T01:44:01;3.3;;;1.2;;
73421;SDS011;61637;47.760;-122.022;2023-04-06T01:46:01;3.5;;;1.2;;
73421;SDS011;61637;47.760;-122.022;2023-04-06T01:48:01;5.1;;;1.4;;
73421;SDS011;61637;47.760;-122.022;2023-04-06T01:50:01;6.5;;;1.3;;
73421;SDS011;61637;47.760;-122.022;2023-04-06T01:52:01;5.1;;;1.3;;
73421;SDS011;61637;47.760;-122.022;2023-04-06T01:54:01;3.7;;;1.2;;
73421;SDS011;61637;47.760;-122.022;2023-04-06T01:56:01;3.8;;;1.2;;
73421;SDS011;61637;47.760;-122.022;2023-04-06T01:58:01;4.4;;;1.4;;
73421;SDS011;61637;47.760;-122.022;2023-04-06T02:00:01;4.5;;;1.5;;
73421;SDS011;61637;47.760;-122.022;2023-04-06T02:02:01;4.9;;;1.6;;
73421;SDS011;61637;47.760;-122.022;2023-04-06T02:04:01;4.1;;;1.4;;
73421;SDS011;61637;47.760;-122.022;2023-04-06T02:06:01;4.8;;;1.5;;
73421;SDS011;61637;47.760;-122.022;2023-04-06T02:08:00;4.7;;;1.3;;
73421;SDS011;61637;47.760;-122.022;2023-04-06T02:10:01;5.9;;;1.5;;
73421;SDS011;61637;47.760;-122.022;2023-04-06T02:12:00;5.9;;;1.5;;
73421;SDS011;61637;47.760;-122.022;2023-04-06T02:14:01;4.4;;;1.4;;
73421;SDS011;61637;47.760;-122.022;2023-04-06T02:16:01;4.2;;;1.5;;
73421;SDS011;61637;47.760;-122.022;2023-04-06T02:18:01;4.9;;;1.5;;
73421;SDS011;61637;47.760;-122.022;2023-04-06T02:20:00;5.1;;;1.5;;
73421;SDS011;61637;47.760;-122.022;2023-04-06T02:22:01;6.4;;;1.5;;
73421;SDS011;61637;47.760;-122.022;2023-04-06T02:24:01;6.1;;;1.4;;
73421;SDS011;61637;47.760;-122.022;2023-04-06T02:26:01;4.1;;;1.5;;
73421;SDS011;61637;47.760;-122.022;2023-04-06T02:28:01;4.9;;;1.5;;
73421;SDS011;61637;47.760;-122.022;2023-04-06T02:30:01;3.9;;;1.4;;
73421;SDS011;61637;47.760;-122.022;2023-04-06T02:32:00;5.0;;;1.5;;
73421;SDS011;61637;47.760;-122.022;2023-04-06T02:34:01;4.3;;;1.4;;
73421;SDS011;61637;47.760;-122.022;2023-04-06T02:36:00;7.8;;;1.3;;
73421;SDS011;61637;47.760;-122.022;2023-04-06T02:38:01;4.9;;;1.4;;
73421;SDS011;61637;47.760;-122.022;2023-04-06T02:40:01;5.6;;;1.6;;
73421;SDS011;61637;47.760;-122.022;2023-04-06T02:42:01;4.3;;;1.4;;
73421;SDS011;61637;47.760;-122.022;2023-04-06T02:44:01;8.1;;;1.5;;
73421;SDS011;61637;47.760;-122.022;2023-04-06T02:46:01;4.8;;;1.6;;
73421;SDS011;61637;47.760;-122.022;2023-04-06T02:48:01;4.7;;;1.4;;
73421;SDS011;61637;47.760;-122.022;2023-04-06T02:50:01;7.5;;;1.8;;
73421;SDS011;61637;47.760;-122.022;2023-04-06T02:52:02;4.8;;;1.5;;
73421;SDS011;61637;47.760;-122.022;2023-04-06T02:54:01;5.2;;;1.6;;
73421;SDS011;61637;47.760;-122.022;2023-04-06T02:56:01;5.1;;;1.8;;
73421;SDS011;61637;47.760;-122.022;2023-04-06T02:58:01;5.3;;;1.7;;
73421;SDS011;61637;47.760;-122.022;2023-04-06T03:00:01;6.2;;;1.7;;
73421;SDS011;61637;47.760;-122.022;2023-04-06T03:02:01;5.0;;;1.9;;
73421;SDS011;61637;47.760;-122.022;2023-04-06T03:04:01;7.0;;;2.1;;
73421;SDS011;61637;47.760;-122.022;2023-04-06T03:06:01;4.5;;;1.6;;
73421;SDS011;61637;47.760;-122.022;2023-04-06T03:08:01;6.7;;;1.9;;
73421;SDS011;61637;47.760;-122.022;2023-04-06T03:10:01;6.1;;;2.0;;
73421;SDS011;61637;47.760;-122.022;2023-04-06T03:12:01;6.8;;;2.2;;
73421;SDS011;61637;47.760;-122.022;2023-04-06T03:14:01;8.5;;;1.9;;
73421;SDS011;61637;47.760;-122.022;2023-04-06T03:16:01;6.8;;;2.3;;
73421;SDS011;61637;47.760;-122.022;2023-04-06T03:18:00;6.3;;;2.5;;
73421;SDS011;61637;47.760;-122.022;2023-04-06T03:20:01;6.4;;;2.2;;
73421;SDS011;61637;47.760;-122.022;2023-04-06T03:22:01;6.9;;;2.6;;
73421;SDS011;61637;47.760;-122.022;2023-04-06T03:24:01;6.4;;;2.5;;
73421;SDS011;61637;47.760;-122.022;2023-04-06T03:26:02;6.0;;;2.5;;
73421;SDS011;61637;47.760;-122.022;2023-04-06T03:28:01;7.0;;;2.6;;
73421;SDS011;61637;47.760;-122.022;2023-04-06T03:30:01;6.5;;;2.6;;
73421;SDS011;61637;47.760;-122.022;2023-04-06T03:32:01;7.3;;;2.7;;
73421;SDS011;61637;47.760;-122.022;2023-04-06T03:34:01;9.9;;;2.7;;
73421;SDS011;61637;47.760;-122.022;2023-04-06T03:36:01;5.9;;;2.3;;
73421;SDS011;61637;47.760;-122.022;2023-04-06T03:38:01;6.8;;;2.3;;
73421;SDS011;61637;47.760;-122.022;2023-04-06T03:40:01;6.9;;;2.1;;
73421;SDS011;61637;47.760;-122.022;2023-04-06T03:42:01;6.6;;;2.3;;
73421;SDS011;61637;47.760;-122.022;2023-04-06T03:44:01;6.7;;;2.3;;
73421;SDS011;61637;47.760;-122.022;2023-04-06T03:46:01;5.9;;;2.1;;
73421;SDS011;61637;47.760;-122.022;2023-04-06T03:48:01;4.7;;;1.7;;
73421;SDS011;61637;47.760;-122.022;2023-04-06T03:50:01;5.5;;;1.9;;
73421;SDS011;61637;47.760;-122.022;2023-04-06T03:52:02;6.5;;;2.0;;
73421;SDS011;61637;47.760;-122.022;2023-04-06T03:54:01;7.1;;;1.9;;
73421;SDS011;61637;47.760;-122.022;2023-04-06T03:56:01;6.2;;;2.0;;
73421;SDS011;61637;47.760;-122.022;2023-04-06T03:58:01;4.5;;;1.7;;
73421;SDS011;61637;47.760;-122.022;2023-04-06T04:00:01;7.1;;;1.9;;
73421;SDS011;61637;47.760;-122.022;2023-04-06T04:02:01;6.0;;;2.0;;
73421;SDS011;61637;47.760;-122.022;2023-04-06T04:04:01;6.8;;;1.9;;
73421;SDS011;61637;47.760;-122.022;2023-04-06T04:06:01;4.7;;;1.6;;
73421;SDS011;61637;47.760;-122.022;2023-04-06T04:08:00;4.9;;;1.6;;
73421;SDS011;61637;47.760;-122.022;2023-04-06T04:10:01;5.0;;;1.6;;
73421;SDS011;61637;47.760;-122.022;2023-04-06T04:12:01;5.2;;;1.7;;
73421;SDS011;61637;47.760;-122.022;2023-04-06T04:14:01;6.1;;;1.8;;
73421;SDS011;61637;47.760;-122.022;2023-04-06T04:16:01;5.0;;;1.5;;
73421;SDS011;61637;47.760;-122.022;2023-04-06T04:18:01;7.0;;;1.6;;
73421;SDS011;61637;47.760;-122.022;2023-04-06T04:20:01;6.3;;;1.7;;
73421;SDS011;61637;47.760;-122.022;2023-04-06T04:22:01;6.3;;;1.5;;
73421;SDS011;61637;47.760;-122.022;2023-04-06T04:24:01;4.4;;;1.4;;
73421;SDS011;61637;47.760;-122.022;2023-04-06T04:26:00;5.0;;;1.4;;
73421;SDS011;61637;47.760;-122.022;2023-04-06T04:28:02;6.6;;;1.3;;
73421;SDS011;61637;47.760;-122.022;2023-04-06T04:30:01;5.9;;;1.5;;
73421;SDS011;61637;47.760;-122.022;2023-04-06T04:32:01;6.4;;;1.5;;
73421;SDS011;61637;47.760;-122.022;2023-04-06T04:34:01;4.7;;;1.6;;
73421;SDS011;61637;47.760;-122.022;2023-04-06T04:36:01;5.7;;;1.6;;
73421;SDS011;61637;47.760;-122.022;2023-04-06T04:38:01;5.3;;;1.7;;
73421;SDS011;61637;47.760;-122.022;2023-04-06T04:40:01;8.0;;;2.1;;
73421;SDS011;61637;47.760;-122.022;2023-04-06T04:42:01;8.0;;;2.1;;
73421;SDS011;61637;47.760;-122.022;2023-04-06T04:44:01;6.0;;;1.7;;
73421;SDS011;61637;47.760;-122.022;2023-04-06T04:46:00;6.2;;;1.5;;
73421;SDS011;61637;47.760;-122.022;2023-04-06T04:48:01;4.8;;;1.3;;
73421;SDS011;61637;47.760;-122.022;2023-04-06T04:50:01;3.8;;;1.4;;
73421;SDS011;61637;47.760;-122.022;2023-04-06T04:52:01;5.2;;;1.6;;
73421;SDS011;61637;47.760;-122.022;2023-04-06T04:54:01;5.4;;;1.6;;
73421;SDS011;61637;47.760;-122.022;2023-04-06T04:56:01;5.8;;;1.5;;
73421;SDS011;61637;47.760;-122.022;2023-04-06T04:58:01;5.6;;;1.6;;
73421;SDS011;61637;47.760;-122.022;2023-04-06T05:00:01;7.9;;;1.6;;
73421;SDS011;61637;47.760;-122.022;2023-04-06T05:02:01;6.3;;;1.6;;
73421;SDS011;61637;47.760;-122.022;2023-04-06T05:04:01;5.5;;;1.5;;
73421;SDS011;61637;47.760;-122.022;2023-04-06T05:06:01;6.2;;;1.6;;
73421;SDS011;61637;47.760;-122.022;2023-04-06T05:08:01;6.4;;;1.5;;
73421;SDS011;61637;47.760;-122.022;2023-04-06T05:10:00;5.5;;;1.5;;
73421;SDS011;61637;47.760;-122.022;2023-04-06T05:12:01;6.0;;;1.6;;
73421;SDS011;61637;47.760;-122.022;2023-04-06T05:14:01;4.6;;;1.5;;
73421;SDS011;61637;47.760;-122.022;2023-04-06T05:16:02;6.4;;;1.4;;
73421;SDS011;61637;47.760;-122.022;2023-04-06T05:18:01;7.6;;;1.4;;
73421;SDS011;61637;47.760;-122.022;2023-04-06T05:20:01;4.7;;;1.4;;
73421;SDS011;61637;47.760;-122.022;2023-04-06T05:22:01;5.3;;;1.3;;
73421;SDS011;61637;47.760;-122.022;2023-04-06T05:24:01;4.3;;;1.4;;
73421;SDS011;61637;47.760;-122.022;2023-04-06T05:26:01;4.7;;;1.5;;
73421;SDS011;61637;47.760;-122.022;2023-04-06T05:28:01;6.4;;;1.4;;
73421;SDS011;61637;47.760;-122.022;2023-04-06T05:30:01;4.1;;;1.5;;
73421;SDS011;61637;47.760;-122.022;2023-04-06T05:32:01;4.8;;;1.4;;
73421;SDS011;61637;47.760;-122.022;2023-04-06T05:34:01;6.1;;;1.4;;
73421;SDS011;61637;47.760;-122.022;2023-04-06T05:36:01;7.9;;;1.4;;
73421;SDS011;61637;47.760;-122.022;2023-04-06T05:38:01;4.1;;;1.4;;
73421;SDS011;61637;47.760;-122.022;2023-04-06T05:40:01;7.0;;;1.3;;
73421;SDS011;61637;47.760;-122.022;2023-04-06T05:42:04;4.5;;;1.4;;
73421;SDS011;61637;47.760;-122.022;2023-04-06T05:44:01;4.6;;;1.5;;
73421;SDS011;61637;47.760;-122.022;2023-04-06T05:46:01;4.6;;;1.4;;
73421;SDS011;61637;47.760;-122.022;2023-04-06T05:48:01;5.3;;;1.5;;
73421;SDS011;61637;47.760;-122.022;2023-04-06T05:50:01;5.0;;;1.5;;
73421;SDS011;61637;47.760;-122.022;2023-04-06T05:52:01;5.3;;;1.5;;
73421;SDS011;61637;47.760;-122.022;2023-04-06T05:54:01;5.2;;;1.3;;
73421;SDS011;61637;47.760;-122.022;2023-04-06T05:56:01;4.9;;;1.5;;
73421;SDS011;61637;47.760;-122.022;2023-04-06T05:58:00;4.9;;;1.7;;
73421;SDS011;61637;47.760;-122.022;2023-04-06T06:00:01;5.8;;;1.6;;
73421;SDS011;61637;47.760;-122.022;2023-04-06T06:02:01;6.2;;;1.5;;
73421;SDS011;61637;47.760;-122.022;2023-04-06T06:04:02;5.8;;;1.5;;
73421;SDS011;61637;47.760;-122.022;2023-04-06T06:06:02;5.1;;;1.6;;
73421;SDS011;61637;47.760;-122.022;2023-04-06T06:08:01;5.4;;;1.7;;
73421;SDS011;61637;47.760;-122.022;2023-04-06T06:10:01;5.5;;;1.6;;
73421;SDS011;61637;47.760;-122.022;2023-04-06T06:12:01;5.5;;;1.6;;
73421;SDS011;61637;47.760;-122.022;2023-04-06T06:14:01;4.9;;;1.6;;
73421;SDS011;61637;47.760;-122.022;2023-04-06T06:16:01;5.0;;;1.6;;
73421;SDS011;61637;47.760;-122.022;2023-04-06T06:18:01;5.9;;;1.8;;
73421;SDS011;61637;47.760;-122.022;2023-04-06T06:20:01;5.9;;;1.7;;
73421;SDS011;61637;47.760;-122.022;2023-04-06T06:22:00;6.6;;;1.8;;
73421;SDS011;61637;47.760;-122.022;2023-04-06T06:24:01;6.0;;;1.7;;
73421;SDS011;61637;47.760;-122.022;2023-04-06T06:26:01;5.3;;;1.9;;
73421;SDS011;61637;47.760;-122.022;2023-04-06T06:28:01;5.4;;;1.9;;
73421;SDS011;61637;47.760;-122.022;2023-04-06T06:30:01;4.8;;;1.8;;
73421;SDS011;61637;47.760;-122.022;2023-04-06T06:32:01;6.0;;;2.1;;
73421;SDS011;61637;47.760;-122.022;2023-04-06T06:34:01;6.0;;;2.1;;
73421;SDS011;61637;47.760;-122.022;2023-04-06T06:36:01;5.9;;;1.7;;
73421;SDS011;61637;47.760;-122.022;2023-04-06T06:38:00;7.4;;;2.3;;
73421;SDS011;61637;47.760;-122.022;2023-04-06T06:40:01;6.4;;;2.5;;
73421;SDS011;61637;47.760;-122.022;2023-04-06T06:42:01;7.6;;;2.3;;
73421;SDS011;61637;47.760;-122.022;2023-04-06T06:44:01;6.0;;;2.4;;
73421;SDS011;61637;47.760;-122.022;2023-04-06T06:46:02;6.6;;;2.4;;
73421;SDS011;61637;47.760;-122.022;2023-04-06T06:48:01;6.8;;;2.5;;
73421;SDS011;61637;47.760;-122.022;2023-04-06T06:50:01;6.9;;;2.3;;
73421;SDS011;61637;47.760;-122.022;2023-04-06T06:52:01;7.7;;;2.6;;
73421;SDS011;61637;47.760;-122.022;2023-04-06T06:54:01;7.5;;;2.4;;
73421;SDS011;61637;47.760;-122.022;2023-04-06T06:56:01;6.9;;;2.5;;
73421;SDS011;61637;47.760;-122.022;2023-04-06T06:58:01;6.9;;;2.5;;
73421;SDS011;61637;47.760;-122.022;2023-04-06T07:00:01;6.6;;;2.5;;
73421;SDS011;61637;47.760;-122.022;2023-04-06T07:02:01;6.8;;;2.6;;
73421;SDS011;61637;47.760;-122.022;2023-04-06T07:04:01;6.7;;;2.3;;
73421;SDS011;61637;47.760;-122.022;2023-04-06T07:06:01;7.7;;;2.6;;
73421;SDS011;61637;47.760;-122.022;2023-04-06T07:08:01;6.7;;;2.6;;
73421;SDS011;61637;47.760;-122.022;2023-04-06T07:10:01;6.6;;;2.5;;
73421;SDS011;61637;47.760;-122.022;2023-04-06T07:12:01;6.7;;;2.4;;
73421;SDS011;61637;47.760;-122.022;2023-04-06T07:14:01;6.2;;;2.4;;
73421;SDS011;61637;47.760;-122.022;2023-04-06T07:16:01;6.5;;;2.7;;
73421;SDS011;61637;47.760;-122.022;2023-04-06T07:18:01;7.2;;;2.5;;
73421;SDS011;61637;47.760;-122.022;2023-04-06T07:20:01;7.6;;;2.5;;
73421;SDS011;61637;47.760;-122.022;2023-04-06T07:22:01;7.3;;;2.7;;
73421;SDS011;61637;47.760;-122.022;2023-04-06T07:24:01;7.4;;;2.6;;
73421;SDS011;61637;47.760;-122.022;2023-04-06T07:26:01;6.4;;;2.5;;
73421;SDS011;61637;47.760;-122.022;2023-04-06T07:28:01;7.2;;;2.9;;
73421;SDS011;61637;47.760;-122.022;2023-04-06T07:30:01;6.6;;;2.6;;
73421;SDS011;61637;47.760;-122.022;2023-04-06T07:32:01;6.0;;;2.4;;
73421;SDS011;61637;47.760;-122.022;2023-04-06T07:34:01;6.5;;;2.4;;
73421;SDS011;61637;47.760;-122.022;2023-04-06T07:36:01;6.8;;;2.3;;
73421;SDS011;61637;47.760;-122.022;2023-04-06T07:38:01;6.9;;;2.6;;
73421;SDS011;61637;47.760;-122.022;2023-04-06T07:40:01;7.3;;;2.5;;
73421;SDS011;61637;47.760;-122.022;2023-04-06T07:42:01;7.2;;;2.4;;
73421;SDS011;61637;47.760;-122.022;2023-04-06T07:44:01;6.5;;;2.4;;
73421;SDS011;61637;47.760;-122.022;2023-04-06T07:46:01;7.1;;;2.6;;
73421;SDS011;61637;47.760;-122.022;2023-04-06T07:48:01;6.3;;;2.4;;
73421;SDS011;61637;47.760;-122.022;2023-04-06T07:50:01;8.9;;;2.7;;
73421;SDS011;61637;47.760;-122.022;2023-04-06T07:52:01;8.8;;;2.6;;
73421;SDS011;61637;47.760;-122.022;2023-04-06T07:54:01;7.7;;;2.5;;
73421;SDS011;61637;47.760;-122.022;2023-04-06T07:56:01;5.7;;;2.3;;
73421;SDS011;61637;47.760;-122.022;2023-04-06T07:58:01;6.8;;;2.5;;
73421;SDS011;61637;47.760;-122.022;2023-04-06T08:00:01;6.5;;;2.4;;
73421;SDS011;61637;47.760;-122.022;2023-04-06T08:02:01;5.9;;;2.2;;
73421;SDS011;61637;47.760;-122.022;2023-04-06T08:04:01;8.5;;;2.4;;
73421;SDS011;61637;47.760;-122.022;2023-04-06T08:06:01;8.1;;;2.3;;
73421;SDS011;61637;47.760;-122.022;2023-04-06T08:08:01;6.2;;;2.2;;
73421;SDS011;61637;47.760;-122.022;2023-04-06T08:10:01;6.6;;;2.1;;
73421;SDS011;61637;47.760;-122.022;2023-04-06T08:12:01;5.2;;;2.0;;
73421;SDS011;61637;47.760;-122.022;2023-04-06T08:14:01;6.7;;;1.9;;
73421;SDS011;61637;47.760;-122.022;2023-04-06T08:16:02;6.9;;;2.2;;
73421;SDS011;61637;47.760;-122.022;2023-04-06T08:18:01;6.4;;;1.9;;
73421;SDS011;61637;47.760;-122.022;2023-04-06T08:20:01;5.0;;;2.0;;
73421;SDS011;61637;47.760;-122.022;2023-04-06T08:22:01;5.1;;;1.8;;
73421;SDS011;61637;47.760;-122.022;2023-04-06T08:24:01;6.0;;;1.7;;
73421;SDS011;61637;47.760;-122.022;2023-04-06T08:26:01;5.2;;;1.7;;
73421;SDS011;61637;47.760;-122.022;2023-04-06T08:28:01;5.0;;;1.6;;
73421;SDS011;61637;47.760;-122.022;2023-04-06T08:30:01;4.3;;;1.6;;
73421;SDS011;61637;47.760;-122.022;2023-04-06T08:32:00;4.0;;;1.4;;
73421;SDS011;61637;47.760;-122.022;2023-04-06T08:34:02;4.0;;;1.4;;
73421;SDS011;61637;47.760;-122.022;2023-04-06T08:36:08;4.0;;;1.5;;
73421;SDS011;61637;47.760;-122.022;2023-04-06T08:38:01;4.8;;;1.4;;
73421;SDS011;61637;47.760;-122.022;2023-04-06T08:40:01;4.4;;;1.4;;
73421;SDS011;61637;47.760;-122.022;2023-04-06T08:42:01;4.1;;;1.5;;
73421;SDS011;61637;47.760;-122.022;2023-04-06T08:44:02;4.2;;;1.4;;
73421;SDS011;61637;47.760;-122.022;2023-04-06T08:46:01;5.3;;;1.6;;
73421;SDS011;61637;47.760;-122.022;2023-04-06T08:48:03;5.1;;;1.5;;
73421;SDS011;61637;47.760;-122.022;2023-04-06T08:50:03;5.6;;;1.5;;
73421;SDS011;61637;47.760;-122.022;2023-04-06T08:52:01;4.6;;;1.5;;
73421;SDS011;61637;47.760;-122.022;2023-04-06T08:54:01;4.0;;;1.4;;
73421;SDS011;61637;47.760;-122.022;2023-04-06T08:56:01;7.0;;;1.3;;
73421;SDS011;61637;47.760;-122.022;2023-04-06T08:58:02;4.2;;;1.4;;
73421;SDS011;61637;47.760;-122.022;2023-04-06T09:00:01;4.0;;;1.4;;
73421;SDS011;61637;47.760;-122.022;2023-04-06T09:02:03;4.5;;;1.4;;
73421;SDS011;61637;47.760;-122.022;2023-04-06T09:04:02;4.5;;;1.4;;
73421;SDS011;61637;47.760;-122.022;2023-04-06T09:06:01;5.3;;;1.3;;
73421;SDS011;61637;47.760;-122.022;2023-04-06T09:08:01;5.0;;;1.3;;
73421;SDS011;61637;47.760;-122.022;2023-04-06T09:10:01;5.7;;;1.4;;
73421;SDS011;61637;47.760;-122.022;2023-04-06T09:12:01;4.1;;;1.3;;
73421;SDS011;61637;47.760;-122.022;2023-04-06T09:14:01;4.1;;;1.3;;
73421;SDS011;61637;47.760;-122.022;2023-04-06T09:16:02;6.7;;;1.6;;
73421;SDS011;61637;47.760;-122.022;2023-04-06T09:18:01;4.0;;;1.4;;
73421;SDS011;61637;47.760;-122.022;2023-04-06T09:20:01;5.9;;;1.6;;
73421;SDS011;61637;47.760;-122.022;2023-04-06T09:22:03;4.6;;;1.4;;
73421;SDS011;61637;47.760;-122.022;2023-04-06T09:24:01;4.4;;;1.5;;
73421;SDS011;61637;47.760;-122.022;2023-04-06T09:26:06;5.5;;;1.5;;
73421;SDS011;61637;47.760;-122.022;2023-04-06T09:28:03;6.2;;;1.6;;
73421;SDS011;61637;47.760;-122.022;2023-04-06T09:30:05;4.4;;;1.5;;
73421;SDS011;61637;47.760;-122.022;2023-04-06T09:32:04;5.2;;;1.8;;
73421;SDS011;61637;47.760;-122.022;2023-04-06T09:34:01;5.0;;;1.4;;
73421;SDS011;61637;47.760;-122.022;2023-04-06T09:36:01;6.5;;;1.7;;
73421;SDS011;61637;47.760;-122.022;2023-04-06T09:38:11;4.8;;;1.6;;
73421;SDS011;61637;47.760;-122.022;2023-04-06T09:40:03;5.6;;;1.5;;
73421;SDS011;61637;47.760;-122.022;2023-04-06T09:42:01;5.3;;;1.6;;
73421;SDS011;61637;47.760;-122.022;2023-04-06T09:44:03;5.6;;;1.8;;
73421;SDS011;61637;47.760;-122.022;2023-04-06T09:46:01;5.1;;;1.6;;
73421;SDS011;61637;47.760;-122.022;2023-04-06T09:48:01;4.7;;;1.4;;
73421;SDS011;61637;47.760;-122.022;2023-04-06T09:50:02;4.2;;;1.4;;
73421;SDS011;61637;47.760;-122.022;2023-04-06T09:52:03;4.8;;;1.2;;
73421;SDS011;61637;47.760;-122.022;2023-04-06T09:54:02;4.0;;;1.4;;
73421;SDS011;61637;47.760;-122.022;2023-04-06T09:56:02;4.0;;;1.3;;
73421;SDS011;61637;47.760;-122.022;2023-04-06T09:58:04;4.5;;;1.2;;
73421;SDS011;61637;47.760;-122.022;2023-04-06T10:00:05;4.1;;;1.3;;
73421;SDS011;61637;47.760;-122.022;2023-04-06T10:02:03;3.4;;;1.2;;
73421;SDS011;61637;47.760;-122.022;2023-04-06T10:04:10;4.0;;;1.2;;
73421;SDS011;61637;47.760;-122.022;2023-04-06T10:06:04;4.1;;;1.3;;
73421;SDS011;61637;47.760;-122.022;2023-04-06T10:08:05;4.1;;;1.4;;
73421;SDS011;61637;47.760;-122.022;2023-04-06T10:10:03;3.9;;;1.1;;
73421;SDS011;61637;47.760;-122.022;2023-04-06T10:12:01;4.0;;;1.4;;
73421;SDS011;61637;47.760;-122.022;2023-04-06T10:14:01;5.2;;;1.4;;
73421;SDS011;61637;47.760;-122.022;2023-04-06T10:16:01;4.2;;;1.3;;
73421;SDS011;61637;47.760;-122.022;2023-04-06T10:18:02;4.7;;;1.3;;
73421;SDS011;61637;47.760;-122.022;2023-04-06T10:20:05;3.6;;;1.2;;
73421;SDS011;61637;47.760;-122.022;2023-04-06T10:22:03;5.7;;;1.4;;
73421;SDS011;61637;47.760;-122.022;2023-04-06T10:24:02;4.9;;;1.2;;
73421;SDS011;61637;47.760;-122.022;2023-04-06T10:26:02;7.0;;;1.3;;
73421;SDS011;61637;47.760;-122.022;2023-04-06T10:28:01;3.4;;;1.3;;
73421;SDS011;61637;47.760;-122.022;2023-04-06T10:30:02;3.6;;;1.2;;
73421;SDS011;61637;47.760;-122.022;2023-04-06T10:32:01;4.5;;;1.4;;
73421;SDS011;61637;47.760;-122.022;2023-04-06T10:34:02;3.9;;;1.2;;
73421;SDS011;61637;47.760;-122.022;2023-04-06T10:36:10;4.1;;;1.2;;
73421;SDS011;61637;47.760;-122.022;2023-04-06T10:38:03;4.7;;;1.3;;
73421;SDS011;61637;47.760;-122.022;2023-04-06T10:40:00;4.0;;;1.4;;
73421;SDS011;61637;47.760;-122.022;2023-04-06T10:42:06;3.8;;;1.3;;
73421;SDS011;61637;47.760;-122.022;2023-04-06T10:44:02;5.0;;;1.4;;
73421;SDS011;61637;47.760;-122.022;2023-04-06T10:46:01;4.8;;;1.3;;
73421;SDS011;61637;47.760;-122.022;2023-04-06T10:48:04;4.7;;;1.2;;
73421;SDS011;61637;47.760;-122.022;2023-04-06T10:50:01;4.2;;;1.3;;
73421;SDS011;61637;47.760;-122.022;2023-04-06T10:52:01;5.4;;;1.3;;
73421;SDS011;61637;47.760;-122.022;2023-04-06T10:54:04;3.4;;;1.2;;
73421;SDS011;61637;47.760;-122.022;2023-04-06T10:56:02;3.3;;;1.1;;
73421;SDS011;61637;47.760;-122.022;2023-04-06T10:58:01;4.6;;;1.2;;
73421;SDS011;61637;47.760;-122.022;2023-04-06T11:00:01;3.5;;;1.2;;
73421;SDS011;61637;47.760;-122.022;2023-04-06T11:02:01;3.6;;;1.1;;
73421;SDS011;61637;47.760;-122.022;2023-04-06T11:04:01;3.6;;;1.1;;
73421;SDS011;61637;47.760;-122.022;2023-04-06T11:06:01;3.0;;;1.0;;
73421;SDS011;61637;47.760;-122.022;2023-04-06T11:08:01;4.5;;;1.3;;
73421;SDS011;61637;47.760;-122.022;2023-04-06T11:10:01;3.6;;;1.2;;
73421;SDS011;61637;47.760;-122.022;2023-04-06T11:12:01;3.5;;;1.1;;
73421;SDS011;61637;47.760;-122.022;2023-04-06T11:14:01;3.3;;;1.2;;
73421;SDS011;61637;47.760;-122.022;2023-04-06T11:16:01;2.8;;;1.1;;
73421;SDS011;61637;47.760;-122.022;2023-04-06T11:18:04;3.6;;;1.3;;
73421;SDS011;61637;47.760;-122.022;2023-04-06T11:20:02;4.6;;;1.2;;
73421;SDS011;61637;47.760;-122.022;2023-04-06T11:22:07;4.6;;;1.2;;
73421;SDS011;61637;47.760;-122.022;2023-04-06T11:24:07;3.2;;;1.1;;
73421;SDS011;61637;47.760;-122.022;2023-04-06T11:26:01;3.2;;;1.2;;
73421;SDS011;61637;47.760;-122.022;2023-04-06T11:28:01;3.8;;;1.2;;
73421;SDS011;61637;47.760;-122.022;2023-04-06T11:30:02;3.5;;;0.9;;
73421;SDS011;61637;47.760;-122.022;2023-04-06T11:32:02;3.6;;;1.2;;
73421;SDS011;61637;47.760;-122.022;2023-04-06T11:34:01;4.4;;;1.3;;
73421;SDS011;61637;47.760;-122.022;2023-04-06T11:36:01;3.6;;;1.1;;
73421;SDS011;61637;47.760;-122.022;2023-04-06T11:38:03;5.2;;;1.2;;
73421;SDS011;61637;47.760;-122.022;2023-04-06T11:40:01;4.2;;;1.1;;
73421;SDS011;61637;47.760;-122.022;2023-04-06T11:42:01;3.8;;;1.1;;
73421;SDS011;61637;47.760;-122.022;2023-04-06T11:44:01;4.6;;;1.1;;
73421;SDS011;61637;47.760;-122.022;2023-04-06T11:46:01;3.3;;;1.1;;
73421;SDS011;61637;47.760;-122.022;2023-04-06T11:48:01;3.6;;;1.2;;
73421;SDS011;61637;47.760;-122.022;2023-04-06T11:50:06;4.1;;;1.1;;